Time;durP1;ratioP1;P1;durP2;ratioP2;P2;SDS_P1;SDS_P2;PMS_P1;PMS_P2;Temp;Humidity;BMP_temperature;BMP_pressure;BME280_temperature;BME280_humidity;BME280_pressure;Samples;Min_cycle;Max_cycle;Signal;HPM_P1;HPM_P2
2021/12/25 00:03:38;;;;;;;72.53;35.57;;;;;6.70;99849.00;;;;10457196;28;20198;-79
2021/12/25 00:08:39;;;;;;;81.53;38.13;;;;;6.70;99847.00;;;;10456907;28;20633;-79
2021/12/25 00:13:43;;;;;;;80.30;40.13;;;;;6.70;99844.00;;;;10440863;28;20193;-79
2021/12/25 00:18:44;;;;;;;78.70;42.23;;;;;6.70;99847.00;;;;10440425;28;20186;-79
2021/12/25 00:23:49;;;;;;;83.27;40.87;;;;;6.60;99842.00;;;;10440242;28;20206;-79
2021/12/25 00:29:06;;;;;;;85.00;41.23;;;;;6.60;99837.00;;;;10439662;28;20236;-79
2021/12/25 00:34:10;;;;;;;84.90;42.50;;;;;6.60;99826.00;;;;10439534;28;20206;-79
2021/12/25 00:39:13;;;;;;;88.63;40.27;;;;;6.50;99826.00;;;;10423478;28;20216;-79
2021/12/25 00:44:16;;;;;;;88.83;42.13;;;;;6.50;99830.00;;;;10455803;28;20208;-78
2021/12/25 00:49:18;;;;;;;100.30;47.30;;;;;6.50;99826.00;;;;10423276;28;20229;-79
2021/12/25 00:54:21;;;;;;;102.00;47.93;;;;;6.50;99819.00;;;;10439152;28;20186;-78
2021/12/25 00:59:23;;;;;;;95.03;45.50;;;;;6.50;99829.00;;;;10439429;28;20300;-78
2021/12/25 01:04:26;;;;;;;98.03;47.20;;;;;6.50;99826.00;;;;10439210;28;20233;-78
2021/12/25 01:09:28;;;;;;;84.53;43.83;;;;;6.50;99825.00;;;;10439354;28;20222;-78
2021/12/25 01:52:25;;;;;;;101.53;45.23;;;;;6.60;99809.00;;;;10439066;28;20198;-79
2021/12/25 01:57:29;;;;;;;99.27;44.67;;;;;6.60;99812.00;;;;10438732;28;20681;-79
2021/12/25 02:02:31;;;;;;;106.17;45.60;;;;;6.60;99817.00;;;;10438830;28;20200;-79
2021/12/25 02:07:33;;;;;;;108.30;45.53;;;;;6.60;99811.00;;;;10472630;28;20214;-79
2021/12/25 02:12:36;;;;;;;101.60;44.70;;;;;6.60;99797.00;;;;10440027;28;20240;-79
2021/12/25 02:18:07;;;;;;;105.80;45.77;;;;;6.70;99803.00;;;;10446107;28;20304;-79
2021/12/25 02:23:31;;;;;;;97.93;43.50;;;;;6.70;99800.00;;;;10427788;28;20724;-78
2021/12/25 02:28:34;;;;;;;98.63;42.50;;;;;6.70;99803.00;;;;10461649;28;20607;-78
2021/12/25 02:33:36;;;;;;;97.77;42.93;;;;;6.70;99801.00;;;;10445270;28;20584;-78
2021/12/25 02:38:39;;;;;;;96.47;41.10;;;;;6.70;99802.00;;;;10445079;28;20650;-79
2021/12/25 02:43:44;;;;;;;90.23;40.10;;;;;6.70;99798.00;;;;10444600;28;20194;-79
2021/12/25 02:48:49;;;;;;;85.57;38.10;;;;;6.70;99798.00;;;;10444090;28;20201;-79
2021/12/25 02:53:51;;;;;;;85.33;40.57;;;;;6.70;99800.00;;;;10444378;28;20195;-79
2021/12/25 02:58:53;;;;;;;83.20;37.77;;;;;6.70;99793.00;;;;10460804;28;20194;-79
2021/12/25 03:03:55;;;;;;;87.90;37.47;;;;;6.70;99785.00;;;;10427634;28;20202;-79
2021/12/25 03:08:57;;;;;;;86.93;41.10;;;;;6.70;99782.00;;;;10443189;28;20214;-79
2021/12/25 03:14:11;;;;;;;81.30;36.57;;;;;6.70;99786.00;;;;10443398;28;20657;-79
2021/12/25 03:19:21;;;;;;;81.17;37.30;;;;;6.80;99790.00;;;;10449957;28;20244;-79
2021/12/25 03:24:22;;;;;;;73.10;37.20;;;;;6.80;99796.00;;;;10402059;28;20201;-79
2021/12/25 03:29:25;;;;;;;71.97;33.53;;;;;6.80;99798.00;;;;10434732;28;20207;-80
2021/12/25 03:34:27;;;;;;;64.27;31.67;;;;;6.80;99797.00;;;;10428973;28;20744;-79
2021/12/25 03:39:30;;;;;;;62.47;30.17;;;;;6.80;99798.00;;;;10421003;28;20198;-79
2021/12/25 03:44:35;;;;;;;59.30;29.60;;;;;6.80;99800.00;;;;10442732;28;20190;-80
2021/12/25 04:00:27;;;;;;;41.57;23.27;;;;;6.70;99820.00;;;;10442179;28;20202;-79
2021/12/25 04:05:32;;;;;;;30.33;18.63;;;;;6.70;99820.00;;;;10475315;28;20194;-79
2021/12/25 04:10:41;;;;;;;29.77;18.43;;;;;6.60;99824.00;;;;10392995;28;20290;-79
2021/12/25 04:15:44;;;;;;;29.10;17.63;;;;;6.60;99828.00;;;;10367278;28;20198;-79
2021/12/25 04:20:48;;;;;;;32.83;19.03;;;;;6.50;99831.00;;;;10399862;28;20542;-79
2021/12/25 04:25:50;;;;;;;32.50;19.27;;;;;6.40;99823.00;;;;10383738;28;20217;-79
2021/12/25 04:31:09;;;;;;;28.27;17.73;;;;;6.30;99824.00;;;;10415984;28;20233;-79
2021/12/25 05:03:05;;;;;;;40.33;19.67;;;;;6.00;99843.00;;;;10458060;28;20190;-78
2021/12/25 05:08:13;;;;;;;33.33;19.30;;;;;6.00;99855.00;;;;10439034;28;20206;-79
2021/12/25 05:13:15;;;;;;;38.47;19.20;;;;;5.90;99864.00;;;;10456831;28;20191;-78
2021/12/25 05:18:17;;;;;;;37.67;18.33;;;;;5.90;99877.00;;;;10439622;28;20378;-79
2021/12/25 05:23:19;;;;;;;39.37;21.70;;;;;5.90;99867.00;;;;10456554;28;20225;-78
2021/12/25 05:28:26;;;;;;;40.93;21.43;;;;;5.80;99877.00;;;;10406906;28;20210;-78
2021/12/25 05:33:35;;;;;;;40.13;21.00;;;;;5.80;99872.00;;;;10405915;28;20254;-78
2021/12/25 05:39:08;;;;;;;40.40;20.43;;;;;5.70;99883.00;;;;10418907;28;20587;-78
2021/12/25 05:44:10;;;;;;;39.10;21.50;;;;;5.70;99890.00;;;;10398274;28;20205;-78
2021/12/25 05:49:33;;;;;;;38.00;19.53;;;;;5.60;99894.00;;;;10394972;28;20237;-79
2021/12/25 05:54:39;;;;;;;36.97;18.50;;;;;5.60;99890.00;;;;10408528;28;20198;-78
2021/12/25 05:59:59;;;;;;;36.60;19.93;;;;;5.60;99901.00;;;;10406258;28;20662;-79
2021/12/25 06:05:16;;;;;;;33.13;18.47;;;;;5.50;99913.00;;;;10390419;28;20233;-78
2021/12/25 06:10:19;;;;;;;29.50;17.20;;;;;5.40;99912.00;;;;10421109;28;20706;-78
2021/12/25 06:15:23;;;;;;;28.70;17.97;;;;;5.40;99914.00;;;;10404791;28;20682;-78
2021/12/25 06:20:40;;;;;;;28.37;17.57;;;;;5.30;99915.00;;;;10406697;28;20186;-79
2021/12/25 06:26:10;;;;;;;27.23;16.73;;;;;5.20;99930.00;;;;10402351;28;20210;-78
2021/12/25 06:31:44;;;;;;;20.97;13.57;;;;;5.20;99932.00;;;;10403667;28;20191;-78
2021/12/25 06:37:17;;;;;;;23.00;13.33;;;;;5.10;99953.00;;;;10409763;28;20224;-78
2021/12/25 06:42:40;;;;;;;24.80;15.27;;;;;5.00;99943.00;;;;10458739;28;20204;-78
2021/12/25 06:47:42;;;;;;;28.03;15.50;;;;;5.00;99954.00;;;;10461856;28;20282;-78
2021/12/25 06:52:53;;;;;;;20.20;13.07;;;;;4.90;99954.00;;;;10443926;28;20554;-78
2021/12/25 06:58:27;;;;;;;20.90;12.97;;;;;4.70;99975.00;;;;10460399;28;20186;-78
2021/12/25 07:03:29;;;;;;;23.47;13.20;;;;;4.50;99968.00;;;;10444394;28;20195;-78
2021/12/25 07:08:50;;;;;;;19.87;13.90;;;;;4.40;99976.00;;;;10457888;28;20214;-78
2021/12/25 07:14:14;;;;;;;21.43;13.73;;;;;4.30;99980.00;;;;10465832;28;20641;-78
2021/12/25 07:19:22;;;;;;;21.03;14.70;;;;;4.10;99986.00;;;;10439324;28;20194;-78
2021/12/25 07:24:53;;;;;;;19.50;12.43;;;;;4.00;100000.00;;;;10401822;28;20195;-78
2021/12/25 07:30:07;;;;;;;24.60;15.73;;;;;4.00;100007.00;;;;10434462;28;20218;-78
2021/12/25 07:35:10;;;;;;;27.43;17.60;;;;;3.90;99999.00;;;;10417619;28;20713;-78
2021/12/25 07:40:12;;;;;;;27.90;15.77;;;;;3.90;100011.00;;;;10417750;28;20186;-79
2021/12/25 07:45:15;;;;;;;33.83;18.17;;;;;3.90;100028.00;;;;10385609;28;20199;-79
2021/12/25 07:50:17;;;;;;;29.50;16.33;;;;;3.90;100030.00;;;;10384522;28;20215;-79
2021/12/25 07:55:19;;;;;;;30.03;17.03;;;;;3.90;100027.00;;;;10418144;28;20187;-79
2021/12/25 08:00:21;;;;;;;28.17;16.20;;;;;3.90;100031.00;;;;10401184;28;20183;-79
2021/12/25 08:05:23;;;;;;;30.47;18.00;;;;;3.90;100040.00;;;;10400653;28;20198;-79
2021/12/25 08:10:25;;;;;;;32.97;18.97;;;;;3.90;100046.00;;;;10443510;28;20214;-79
2021/12/25 08:15:30;;;;;;;32.07;19.57;;;;;3.80;100057.00;;;;10475475;28;20186;-78
2021/12/25 08:20:34;;;;;;;31.80;20.63;;;;;3.70;100070.00;;;;10425448;28;20186;-79
2021/12/25 08:25:55;;;;;;;33.37;21.53;;;;;3.60;100075.00;;;;10455590;28;20764;-78
2021/12/25 08:31:17;;;;;;;34.50;22.83;;;;;3.50;100082.00;;;;10447420;28;20733;-79
2021/12/25 08:36:45;;;;;;;36.73;23.00;;;;;3.40;100075.00;;;;10428099;28;20210;-78
2021/12/25 08:41:47;;;;;;;36.30;23.17;;;;;3.40;100080.00;;;;10457495;28;20198;-79
2021/12/25 08:46:56;;;;;;;37.07;22.63;;;;;3.40;100092.00;;;;10441136;28;20202;-79
2021/12/25 08:52:02;;;;;;;34.67;21.83;;;;;3.40;100109.00;;;;10456828;28;20190;-79
2021/12/25 08:57:05;;;;;;;38.10;23.70;;;;;3.40;100115.00;;;;10440671;28;20189;-78
2021/12/25 09:02:12;;;;;;;35.10;22.20;;;;;3.40;100121.00;;;;10440991;28;20197;-79
2021/12/25 09:07:15;;;;;;;35.57;24.10;;;;;3.40;100132.00;;;;10457040;28;20198;-78
2021/12/25 09:12:19;;;;;;;33.57;21.33;;;;;3.40;100124.00;;;;10382713;28;20191;-78
2021/12/25 09:17:21;;;;;;;40.70;24.23;;;;;3.40;100134.00;;;;10398773;28;20263;-78
2021/12/25 09:22:23;;;;;;;34.50;21.90;;;;;3.40;100138.00;;;;10403445;28;20544;-78
2021/12/25 09:27:25;;;;;;;33.00;21.07;;;;;3.40;100135.00;;;;10408226;28;20202;-78
2021/12/25 09:32:27;;;;;;;35.30;22.10;;;;;3.40;100144.00;;;;10423872;28;20199;-78
2021/12/25 09:37:30;;;;;;;36.67;22.67;;;;;3.50;100151.00;;;;10426196;28;20256;-78
2021/12/25 09:42:32;;;;;;;31.13;21.03;;;;;3.70;100143.00;;;;10464962;28;20653;-79
2021/12/25 09:47:34;;;;;;;34.37;22.73;;;;;3.60;100156.00;;;;10447731;28;20210;-79
2021/12/25 09:52:36;;;;;;;37.30;22.70;;;;;3.60;100156.00;;;;10430623;28;20195;-78
2021/12/25 09:57:39;;;;;;;37.03;23.33;;;;;3.60;100159.00;;;;10464933;28;20190;-78
2021/12/25 10:02:47;;;;;;;35.17;24.73;;;;;3.60;100162.00;;;;10447521;28;20186;-78
2021/12/25 10:08:07;;;;;;;38.30;24.10;;;;;3.60;100154.00;;;;10458422;28;20264;-78
2021/12/25 10:13:25;;;;;;;37.03;22.63;;;;;3.60;100165.00;;;;10406092;28;20203;-78
2021/12/25 10:18:30;;;;;;;40.87;24.83;;;;;3.40;100160.00;;;;10366124;28;20203;-79
2021/12/25 10:23:36;;;;;;;40.23;26.43;;;;;3.60;100163.00;;;;10363884;28;20661;-78
2021/12/25 10:28:40;;;;;;;44.40;28.90;;;;;3.50;100166.00;;;;10379972;28;20208;-78
2021/12/25 10:33:51;;;;;;;43.53;29.50;;;;;3.50;100156.00;;;;10363296;28;20269;-78
2021/12/25 10:39:21;;;;;;;46.10;29.70;;;;;3.60;100160.00;;;;10376824;28;20290;-78
2021/12/25 10:44:29;;;;;;;42.97;27.53;;;;;3.70;100164.00;;;;10428380;28;20202;-78
2021/12/25 10:49:34;;;;;;;40.17;25.87;;;;;3.50;100148.00;;;;10445392;28;20237;-78
2021/12/25 10:54:43;;;;;;;42.23;26.73;;;;;3.50;100143.00;;;;10429246;28;20194;-78
2021/12/25 10:59:47;;;;;;;43.43;27.20;;;;;3.40;100143.00;;;;10445312;28;20197;-78
2021/12/25 11:04:49;;;;;;;44.33;27.37;;;;;3.40;100152.00;;;;10461467;28;20222;-78
2021/12/25 11:10:17;;;;;;;44.20;27.97;;;;;3.20;100156.00;;;;10422468;28;20239;-78
2021/12/25 11:15:26;;;;;;;46.63;29.40;;;;;3.20;100154.00;;;;10403044;28;20194;-78
2021/12/25 11:20:31;;;;;;;45.10;26.63;;;;;3.10;100157.00;;;;10386649;28;20186;-78
2021/12/25 11:25:34;;;;;;;45.83;29.00;;;;;3.10;100167.00;;;;10403037;28;20249;-77
2021/12/25 11:30:49;;;;;;;43.73;28.43;;;;;3.10;100166.00;;;;10418618;28;20219;-77
2021/12/25 11:35:52;;;;;;;47.20;28.70;;;;;3.10;100162.00;;;;10402015;28;20301;-78
2021/12/25 11:40:56;;;;;;;43.63;28.33;;;;;3.10;100162.00;;;;10418033;28;20203;-78
2021/12/25 11:45:58;;;;;;;48.67;30.33;;;;;3.10;100173.00;;;;10442008;28;20190;-78
2021/12/25 11:51:00;;;;;;;54.10;32.17;;;;;3.10;100166.00;;;;10426629;28;20778;-78
2021/12/25 12:01:18;;;;;;;54.63;31.30;;;;;3.00;100157.00;;;;10432456;28;20245;-78
2021/12/25 12:06:51;;;;;;;58.30;35.73;;;;;2.90;100165.00;;;;10418477;28;20205;-77
2021/12/25 12:12:19;;;;;;;52.03;34.13;;;;;2.80;100152.00;;;;10471793;28;20178;-77
2021/12/25 12:17:41;;;;;;;50.50;30.77;;;;;2.70;100163.00;;;;10427543;28;20657;-77
2021/12/25 12:23:04;;;;;;;56.67;35.47;;;;;2.70;100170.00;;;;10474599;28;20186;-77
2021/12/25 12:28:07;;;;;;;61.83;36.17;;;;;2.60;100160.00;;;;10408080;28;20224;-77
2021/12/25 12:33:13;;;;;;;59.03;35.13;;;;;2.60;100156.00;;;;10440418;28;20244;-77
2021/12/25 12:38:43;;;;;;;57.20;34.43;;;;;2.60;100149.00;;;;10457521;28;20269;-78
2021/12/25 12:43:59;;;;;;;58.27;36.17;;;;;2.60;100149.00;;;;10399768;28;20210;-77
2021/12/25 12:49:03;;;;;;;58.97;35.10;;;;;2.60;100148.00;;;;10399805;28;20276;-78
2021/12/25 12:54:05;;;;;;;55.13;34.87;;;;;2.50;100152.00;;;;10382917;28;20658;-77
2021/12/25 12:59:07;;;;;;;57.23;37.30;;;;;2.60;100155.00;;;;10414893;28;20183;-77
2021/12/25 13:04:09;;;;;;;58.40;35.50;;;;;2.50;100150.00;;;;10399077;28;20187;-77
2021/12/25 13:09:12;;;;;;;59.47;37.20;;;;;2.50;100160.00;;;;10398434;28;20214;-77
2021/12/25 13:14:16;;;;;;;56.67;33.17;;;;;2.50;100157.00;;;;10398327;28;20195;-77
2021/12/25 13:19:18;;;;;;;57.47;34.37;;;;;2.50;100165.00;;;;10382398;28;20187;-78
2021/12/25 13:24:20;;;;;;;59.53;34.87;;;;;2.50;100161.00;;;;10432043;28;20655;-77
2021/12/25 13:29:23;;;;;;;63.23;40.60;;;;;2.60;100174.00;;;;10398377;28;20211;-78
2021/12/25 13:34:25;;;;;;;65.63;38.70;;;;;2.60;100171.00;;;;10448007;28;20207;-78
2021/12/25 13:39:30;;;;;;;66.40;37.13;;;;;2.50;100168.00;;;;10429131;28;20231;-77
2021/12/25 13:44:34;;;;;;;67.17;40.50;;;;;2.40;100171.00;;;;10413540;28;20224;-77
2021/12/25 13:49:40;;;;;;;64.20;39.43;;;;;2.30;100184.00;;;;10423067;28;20206;-77
2021/12/25 13:54:44;;;;;;;66.23;38.87;;;;;2.30;100180.00;;;;10439094;28;20170;-77
2021/12/25 13:59:51;;;;;;;64.63;39.83;;;;;2.20;100170.00;;;;10438894;28;20186;-77
2021/12/25 14:04:53;;;;;;;66.00;39.03;;;;;2.20;100177.00;;;;10455337;28;20194;-77
2021/12/25 14:10:06;;;;;;;62.23;36.20;;;;;2.10;100188.00;;;;10420593;28;20889;-78
2021/12/25 14:15:10;;;;;;;62.93;38.30;;;;;2.00;100193.00;;;;10446519;28;20186;-77
2021/12/25 14:20:12;;;;;;;64.97;35.10;;;;;2.00;100189.00;;;;10462384;28;20194;-77
2021/12/25 14:25:24;;;;;;;61.17;37.63;;;;;2.00;100197.00;;;;10445744;28;20201;-78
2021/12/25 14:30:27;;;;;;;68.43;39.73;;;;;1.90;100201.00;;;;10445292;28;20218;-78
2021/12/25 14:35:29;;;;;;;65.47;38.50;;;;;1.90;100208.00;;;;10478745;28;20210;-78
2021/12/25 14:40:34;;;;;;;68.40;39.67;;;;;1.90;100210.00;;;;10431144;28;20203;-78
2021/12/25 14:45:50;;;;;;;67.90;39.37;;;;;1.90;100211.00;;;;10436224;28;20198;-78
2021/12/25 14:50:55;;;;;;;63.27;38.87;;;;;1.90;100216.00;;;;10400875;28;20218;-78
2021/12/25 14:56:04;;;;;;;62.60;38.93;;;;;1.90;100209.00;;;;10385792;28;20198;-78
2021/12/25 15:01:08;;;;;;;64.07;37.47;;;;;1.90;100217.00;;;;10420522;28;20189;-78
2021/12/25 15:06:20;;;;;;;58.73;37.40;;;;;1.80;100228.00;;;;10402787;28;20195;-78
2021/12/25 15:11:45;;;;;;;62.30;36.00;;;;;1.80;100228.00;;;;10384841;28;20219;-77
2021/12/25 15:17:24;;;;;;;63.37;38.63;;;;;1.80;100222.00;;;;10368827;28;20202;-78
2021/12/25 15:23:00;;;;;;;60.90;37.23;;;;;1.80;100220.00;;;;10366552;28;20763;-78
2021/12/25 15:28:36;;;;;;;62.73;36.80;;;;;1.70;100226.00;;;;10355798;28;20208;-78
2021/12/25 15:34:22;;;;;;;56.90;36.87;;;;;1.70;100226.00;;;;10370962;28;21063;-78
2021/12/25 15:40:00;;;;;;;61.37;39.63;;;;;1.70;100228.00;;;;10398406;28;20201;-77
2021/12/25 15:45:41;;;;;;;55.97;35.13;;;;;1.70;100228.00;;;;10403935;28;20204;-77
2021/12/25 15:51:20;;;;;;;57.37;37.40;;;;;1.60;100229.00;;;;10328758;28;20222;-77
2021/12/25 15:56:58;;;;;;;57.93;35.93;;;;;1.50;100225.00;;;;10427985;28;20191;-78
2021/12/25 16:02:34;;;;;;;55.60;35.50;;;;;1.50;100215.00;;;;10409216;28;20195;-78
2021/12/25 16:08:12;;;;;;;61.70;34.87;;;;;1.50;100208.00;;;;10410412;28;20210;-77
2021/12/25 16:13:48;;;;;;;55.80;36.33;;;;;1.50;100212.00;;;;10392179;28;20202;-77
2021/12/25 16:19:24;;;;;;;54.00;33.87;;;;;1.50;100219.00;;;;10424659;28;20186;-77
2021/12/25 16:25:01;;;;;;;54.60;35.37;;;;;1.40;100223.00;;;;10392155;28;20221;-78
2021/12/25 16:30:41;;;;;;;56.37;33.63;;;;;1.40;100225.00;;;;10417133;28;20226;-78
2021/12/25 16:36:17;;;;;;;48.03;29.43;;;;;1.40;100226.00;;;;10364843;28;20662;-78
2021/12/25 16:41:55;;;;;;;58.20;35.97;;;;;1.40;100230.00;;;;10412993;28;20198;-77
2021/12/25 16:47:31;;;;;;;50.83;32.30;;;;;1.40;100230.00;;;;10374824;28;20198;-77
2021/12/25 16:53:07;;;;;;;50.47;30.13;;;;;1.40;100229.00;;;;10423109;28;20198;-77
2021/12/25 16:58:43;;;;;;;49.77;32.53;;;;;1.40;100234.00;;;;10372339;28;20221;-78
2021/12/25 17:04:19;;;;;;;46.23;29.90;;;;;1.40;100237.00;;;;10391189;28;20201;-78
2021/12/25 17:09:55;;;;;;;47.10;31.00;;;;;1.30;100231.00;;;;10414654;28;20228;-77
2021/12/25 17:15:34;;;;;;;49.07;30.17;;;;;1.30;100227.00;;;;10414820;28;20198;-78
2021/12/25 17:21:11;;;;;;;48.43;31.87;;;;;1.30;100231.00;;;;10379082;28;20290;-77
2021/12/25 17:26:47;;;;;;;49.10;29.80;;;;;1.30;100233.00;;;;10421484;28;20245;-78
2021/12/25 17:32:23;;;;;;;45.07;29.70;;;;;1.30;100225.00;;;;10366337;28;20215;-77
2021/12/25 17:38:01;;;;;;;46.87;30.70;;;;;1.30;100228.00;;;;10365773;28;20191;-77
2021/12/25 17:43:40;;;;;;;41.20;26.57;;;;;1.20;100233.00;;;;10408854;28;20209;-77
2021/12/25 17:49:16;;;;;;;43.07;27.73;;;;;1.20;100238.00;;;;10397882;28;20302;-78
2021/12/25 17:55:13;;;;;;;44.07;26.53;;;;;1.30;100230.00;;;;10411098;28;20896;-78
2021/12/25 18:00:51;;;;;;;43.93;25.43;;;;;1.30;100232.00;;;;10412199;28;20535;-78
2021/12/25 18:06:28;;;;;;;48.23;24.83;;;;;1.30;100230.00;;;;10395976;28;20206;-78
2021/12/25 18:12:08;;;;;;;44.47;25.83;;;;;1.30;100222.00;;;;10416609;28;20594;-78
2021/12/25 18:17:45;;;;;;;44.07;24.23;;;;;1.20;100233.00;;;;10413941;28;20654;-78
2021/12/25 18:23:21;;;;;;;40.03;20.70;;;;;1.30;100240.00;;;;10374369;28;20202;-78
2021/12/25 18:28:57;;;;;;;37.07;22.17;;;;;1.30;100248.00;;;;10366097;28;20227;-78
2021/12/25 18:34:33;;;;;;;36.63;19.87;;;;;1.30;100244.00;;;;10367725;28;20230;-78
2021/12/25 18:40:13;;;;;;;30.57;18.67;;;;;1.30;100242.00;;;;10379541;28;20221;-78
2021/12/25 18:45:50;;;;;;;29.87;16.90;;;;;1.20;100246.00;;;;10360078;28;20248;-78
2021/12/25 18:51:27;;;;;;;23.17;15.03;;;;;1.20;100241.00;;;;10340531;28;20223;-78
2021/12/25 18:57:03;;;;;;;33.10;15.80;;;;;1.20;100245.00;;;;10411370;28;20848;-78
2021/12/25 19:02:39;;;;;;;28.13;15.30;;;;;1.20;100239.00;;;;10378316;28;20198;-78
2021/12/25 19:08:38;;;;;;;25.17;13.40;;;;;1.20;100233.00;;;;10363116;28;20218;-77
2021/12/25 19:14:13;;;;;;;25.80;13.30;;;;;1.20;100234.00;;;;10408875;28;20194;-77
2021/12/25 19:19:49;;;;;;;22.90;12.57;;;;;1.30;100233.00;;;;10394486;28;20191;-77
2021/12/25 19:25:26;;;;;;;19.97;13.30;;;;;1.30;100236.00;;;;10383500;28;20199;-78
2021/12/25 19:31:02;;;;;;;20.30;12.03;;;;;1.30;100233.00;;;;10406099;28;20221;-78
2021/12/25 19:36:38;;;;;;;20.07;12.37;;;;;1.30;100232.00;;;;10375492;28;20225;-77
2021/12/25 19:42:14;;;;;;;21.90;12.30;;;;;1.30;100226.00;;;;10410316;28;20855;-78
2021/12/25 19:47:50;;;;;;;20.23;12.00;;;;;1.30;100231.00;;;;10394899;28;20194;-78
2021/12/25 19:53:28;;;;;;;20.93;12.83;;;;;1.30;100227.00;;;;10368249;28;20318;-78
2021/12/25 19:59:05;;;;;;;18.73;12.57;;;;;1.40;100225.00;;;;10375846;28;20503;-78
2021/12/25 20:04:41;;;;;;;19.33;12.23;;;;;1.40;100218.00;;;;10351727;28;20203;-77
2021/12/25 20:10:22;;;;;;;21.27;13.20;;;;;1.40;100224.00;;;;10390206;28;20210;-77
2021/12/25 20:15:58;;;;;;;22.00;12.33;;;;;1.40;100215.00;;;;10384509;28;20673;-77
2021/12/25 20:21:35;;;;;;;18.97;12.63;;;;;1.40;100219.00;;;;10359633;28;20199;-78
2021/12/25 20:27:11;;;;;;;24.10;12.13;;;;;1.40;100214.00;;;;10360227;28;20205;-77
2021/12/25 20:32:47;;;;;;;17.10;11.50;;;;;1.40;100213.00;;;;10390544;28;20703;-78
2021/12/25 20:38:24;;;;;;;18.60;11.47;;;;;1.40;100211.00;;;;10415586;28;20190;-78
2021/12/25 20:49:53;;;;;;;17.87;12.40;;;;;1.40;100210.00;;;;10406693;28;20211;-78
2021/12/25 20:55:29;;;;;;;20.53;14.27;;;;;1.40;100204.00;;;;10353951;28;20192;-78
2021/12/25 21:01:05;;;;;;;18.13;13.53;;;;;1.40;100206.00;;;;10370066;28;20210;-78
2021/12/25 21:06:41;;;;;;;20.90;12.80;;;;;1.40;100213.00;;;;10361369;28;20206;-78
2021/12/25 21:12:17;;;;;;;19.80;13.23;;;;;1.40;100218.00;;;;10386674;28;20214;-78
2021/12/25 21:17:53;;;;;;;19.23;13.07;;;;;1.50;100215.00;;;;10347098;28;20834;-78
2021/12/25 21:23:30;;;;;;;18.27;12.67;;;;;1.50;100223.00;;;;10386609;28;20653;-78
2021/12/25 21:29:08;;;;;;;18.27;12.70;;;;;1.50;100224.00;;;;10415840;28;20201;-77
2021/12/25 21:34:44;;;;;;;15.30;11.43;;;;;1.50;100215.00;;;;10396951;28;20802;-78
2021/12/25 21:40:23;;;;;;;18.10;11.80;;;;;1.40;100203.00;;;;10399939;28;20205;-78
2021/12/25 21:46:00;;;;;;;15.70;10.53;;;;;1.40;100197.00;;;;10371733;28;20195;-78
2021/12/25 21:51:36;;;;;;;17.40;11.30;;;;;1.40;100206.00;;;;10378341;28;20218;-77
2021/12/25 21:57:12;;;;;;;15.70;10.70;;;;;1.40;100199.00;;;;10391967;28;20202;-78
2021/12/25 22:02:48;;;;;;;13.27;9.03;;;;;1.30;100201.00;;;;10396610;28;20210;-78
2021/12/25 22:08:27;;;;;;;15.47;10.13;;;;;1.30;100194.00;;;;10348922;28;20199;-78
2021/12/25 22:14:03;;;;;;;13.33;9.43;;;;;1.30;100200.00;;;;10395366;28;20206;-77
2021/12/25 22:19:39;;;;;;;14.07;9.07;;;;;1.20;100196.00;;;;10427734;28;20214;-77
2021/12/25 22:25:18;;;;;;;13.03;9.63;;;;;1.20;100183.00;;;;10402876;28;20218;-78
2021/12/25 22:30:54;;;;;;;12.57;8.67;;;;;1.10;100185.00;;;;10359791;28;20215;-78
2021/12/25 22:36:30;;;;;;;15.23;8.47;;;;;1.10;100183.00;;;;10391840;28;20564;-77
2021/12/25 22:42:06;;;;;;;15.03;7.90;;;;;1.00;100180.00;;;;10384220;28;20203;-77
2021/12/25 22:47:42;;;;;;;12.20;8.43;;;;;0.90;100190.00;;;;10425053;28;20195;-78
2021/12/25 22:53:20;;;;;;;12.33;7.37;;;;;0.90;100174.00;;;;10426099;28;20202;-77
2021/12/25 22:58:56;;;;;;;13.53;8.53;;;;;0.90;100180.00;;;;10395463;28;20205;-77
2021/12/25 23:04:32;;;;;;;10.20;7.90;;;;;0.90;100180.00;;;;10427553;28;20204;-77
2021/12/25 23:10:11;;;;;;;12.23;8.10;;;;;0.90;100176.00;;;;10398365;28;20229;-77
2021/12/25 23:15:47;;;;;;;12.67;7.73;;;;;0.80;100175.00;;;;10421218;28;20195;-77
2021/12/25 23:21:24;;;;;;;10.63;7.50;;;;;0.80;100173.00;;;;10409713;28;20187;-77
2021/12/25 23:27:01;;;;;;;9.93;7.63;;;;;0.70;100166.00;;;;10390908;28;20226;-77
2021/12/25 23:32:37;;;;;;;14.20;8.20;;;;;0.70;100157.00;;;;10408523;28;20222;-77
2021/12/25 23:38:18;;;;;;;11.57;8.03;;;;;0.70;100168.00;;;;10374534;28;20404;-77
2021/12/25 23:43:59;;;;;;;12.20;7.83;;;;;0.70;100156.00;;;;10349699;28;20206;-77
2021/12/25 23:49:35;;;;;;;15.27;8.60;;;;;0.60;100150.00;;;;10377253;28;20206;-77
2021/12/25 23:55:11;;;;;;;13.50;10.00;;;;;0.60;100158.00;;;;10403922;28;20562;-77
